createdAt,value
2022-11-27T00:00:29.577Z,4.53
2022-11-27T00:05:32.411Z,4.54
2022-11-27T00:10:35.276Z,4.49
2022-11-27T00:15:39.417Z,4.46
2022-11-27T00:20:42.316Z,4.41
2022-11-27T00:25:51.305Z,4.37
2022-11-27T00:30:59.688Z,4.27
2022-11-27T00:36:03.552Z,4.30
2022-11-27T00:41:08.270Z,4.40
2022-11-27T00:46:13.144Z,4.31
2022-11-27T00:51:18.645Z,4.34
2022-11-27T00:56:24.097Z,4.25
2022-11-27T01:01:31.363Z,4.17
2022-11-27T01:06:34.370Z,4.09
2022-11-27T01:11:38.281Z,4.06
2022-11-27T01:16:43.410Z,4.01
2022-11-27T01:21:47.168Z,3.97
2022-11-27T01:26:49.960Z,3.89
2022-11-27T01:31:54.146Z,3.83
2022-11-27T01:36:56.951Z,3.74
2022-11-27T01:41:59.820Z,3.80
2022-11-27T01:47:06.500Z,3.77
2022-11-27T01:52:13.499Z,3.74
2022-11-27T01:57:19.951Z,3.70
2022-11-27T02:02:24.233Z,3.66
2022-11-27T02:07:27.386Z,3.66
2022-11-27T02:12:36.922Z,3.59
2022-11-27T02:17:47.972Z,3.56
2022-11-27T02:23:24.452Z,3.47
2022-11-27T02:28:42.467Z,3.38
2022-11-27T02:33:54.992Z,3.32
2022-11-27T02:39:04.696Z,3.31
2022-11-27T02:44:10.630Z,3.28
2022-11-27T02:49:18.564Z,3.20
2022-11-27T02:54:26.436Z,3.14
2022-11-27T02:59:33.080Z,3.16
2022-11-27T03:04:42.202Z,3.17
2022-11-27T03:09:48.951Z,3.15
2022-11-27T03:14:51.758Z,3.15
2022-11-27T03:20:00.584Z,3.12
2022-11-27T03:25:04.032Z,3.06
2022-11-27T03:30:09.680Z,3.08
2022-11-27T03:35:17.287Z,3.08
2022-11-27T03:40:20.769Z,3.13
2022-11-27T03:45:31.354Z,3.16
2022-11-27T03:50:47.439Z,3.16
2022-11-27T03:55:56.372Z,3.11
2022-11-27T04:01:01.257Z,3.11
2022-11-27T04:06:05.612Z,3.08
2022-11-27T04:11:08.978Z,3.01
2022-11-27T04:16:11.837Z,3.06
2022-11-27T04:21:16.905Z,3.04
2022-11-27T04:26:19.784Z,3.04
2022-11-27T04:31:22.569Z,2.97
2022-11-27T04:36:26.739Z,2.94
2022-11-27T04:41:29.827Z,2.89
2022-11-27T04:46:33.109Z,2.78
2022-11-27T04:51:37.349Z,2.77
2022-11-27T04:56:40.185Z,2.78
2022-11-27T05:01:42.971Z,2.80
2022-11-27T05:06:47.177Z,2.59
2022-11-27T05:11:50.071Z,2.81
2022-11-27T05:16:54.520Z,2.78
2022-11-27T05:21:59.876Z,2.89
2022-11-27T05:27:02.833Z,2.97
2022-11-27T05:32:05.908Z,2.99
2022-11-27T05:37:11.993Z,2.90
2022-11-27T05:42:17.963Z,2.98
2022-11-27T05:47:20.782Z,2.96
2022-11-27T05:52:24.983Z,3.02
2022-11-27T05:57:28.179Z,2.94
2022-11-27T06:02:31.300Z,2.95
2022-11-27T06:07:35.532Z,2.88
2022-11-27T06:12:38.352Z,2.79
2022-11-27T06:17:41.204Z,2.79
2022-11-27T06:22:45.451Z,2.93
2022-11-27T06:27:48.340Z,2.75
2022-11-27T06:32:51.258Z,2.95
2022-11-27T06:37:55.492Z,2.78
2022-11-27T06:42:58.304Z,2.71
2022-11-27T06:48:01.145Z,2.73
2022-11-27T06:53:05.319Z,2.70
2022-11-27T06:58:08.136Z,2.76
2022-11-27T07:03:10.907Z,2.98
2022-11-27T07:08:15.104Z,3.25
2022-11-27T07:13:17.941Z,3.38
2022-11-27T07:18:20.771Z,3.45
2022-11-27T07:23:24.937Z,3.47
2022-11-27T07:28:27.760Z,3.50
2022-11-27T07:33:30.695Z,3.53
2022-11-27T07:38:35.184Z,3.36
2022-11-27T07:43:38.450Z,3.30
2022-11-27T07:48:41.360Z,3.35
2022-11-27T07:53:46.064Z,3.39
2022-11-27T07:58:49.261Z,3.35
2022-11-27T08:03:52.137Z,3.43
2022-11-27T08:08:56.866Z,3.53
2022-11-27T08:14:01.526Z,3.66
2022-11-27T08:19:04.716Z,3.99
2022-11-27T08:24:09.947Z,4.50
2022-11-27T08:29:13.683Z,4.86
2022-11-27T08:34:16.479Z,4.80
2022-11-27T08:39:20.795Z,5.06
2022-11-27T08:44:23.881Z,5.37
2022-11-27T08:49:26.643Z,5.50
2022-11-27T08:54:30.853Z,5.71
2022-11-27T08:59:33.652Z,5.96
2022-11-27T09:04:36.501Z,6.32
2022-11-27T09:09:40.804Z,6.14
2022-11-27T09:14:43.733Z,5.69
2022-11-27T09:19:46.709Z,5.70
2022-11-27T09:24:50.805Z,5.55
2022-11-27T09:29:53.755Z,5.37
2022-11-27T09:34:56.793Z,5.54
2022-11-27T09:40:00.958Z,5.71
2022-11-27T09:45:06.764Z,5.87
2022-11-27T09:50:15.078Z,5.88
2022-11-27T09:55:24.679Z,5.93
2022-11-27T10:00:27.744Z,5.99
2022-11-27T10:05:43.521Z,6.04
2022-11-27T10:11:01.781Z,6.26
2022-11-27T10:16:11.310Z,6.17
2022-11-27T10:21:20.966Z,6.36
2022-11-27T10:26:30.263Z,6.40
2022-11-27T10:31:37.519Z,6.33
2022-11-27T10:36:45.691Z,6.44
2022-11-27T10:41:58.139Z,6.60
2022-11-27T10:47:04.936Z,6.67
2022-11-27T10:52:12.203Z,6.82
2022-11-27T10:57:41.561Z,7.22
2022-11-27T11:02:44.493Z,7.56
2022-11-27T11:07:57.722Z,7.86
2022-11-27T11:13:16.588Z,8.11
2022-11-27T11:18:20.043Z,7.93
2022-11-27T11:23:26.724Z,8.08
2022-11-27T11:28:36.510Z,7.89
2022-11-27T11:33:53.400Z,7.87
2022-11-27T11:38:56.741Z,7.82
2022-11-27T11:44:03.288Z,7.91
2022-11-27T11:49:08.402Z,7.94
2022-11-27T11:54:24.655Z,7.99
2022-11-27T11:59:43.749Z,8.11
2022-11-27T12:05:06.201Z,8.12
2022-11-27T12:10:15.140Z,8.10
2022-11-27T12:15:27.332Z,8.17
2022-11-27T12:20:42.219Z,8.09
2022-11-27T12:25:54.490Z,8.26
2022-11-27T12:31:07.388Z,8.35
2022-11-27T12:36:21.804Z,8.38
2022-11-27T12:42:09.250Z,8.53
2022-11-27T12:47:19.974Z,8.32
2022-11-27T12:52:26.665Z,8.34
2022-11-27T12:57:37.719Z,8.32
2022-11-27T13:02:46.446Z,8.31
2022-11-27T13:07:56.670Z,8.37
2022-11-27T13:13:06.089Z,8.31
2022-11-27T13:18:19.878Z,8.38
2022-11-27T13:23:22.670Z,8.32
2022-11-27T13:28:32.161Z,8.32
2022-11-27T13:33:41.089Z,8.34
2022-11-27T13:38:45.177Z,8.29
2022-11-27T13:43:48.394Z,8.25
2022-11-27T13:48:56.518Z,8.32
2022-11-27T13:54:11.782Z,8.16
2022-11-27T13:59:16.804Z,8.07
2022-11-27T14:04:20.947Z,8.00
2022-11-27T14:09:36.176Z,7.90
2022-11-27T14:14:39.342Z,7.87
2022-11-27T14:19:46.250Z,7.93
2022-11-27T14:24:55.915Z,7.99
2022-11-27T14:29:58.734Z,8.06
2022-11-27T14:35:02.877Z,8.05
2022-11-27T14:40:14.317Z,7.84
2022-11-27T14:45:19.786Z,7.89
2022-11-27T14:50:24.424Z,7.79
2022-11-27T14:55:34.294Z,7.69
2022-11-27T15:00:37.459Z,7.58
2022-11-27T15:05:41.658Z,7.60
2022-11-27T15:10:44.516Z,7.50
2022-11-27T15:15:56.947Z,7.34
2022-11-27T15:21:01.852Z,7.35
2022-11-27T15:26:15.054Z,7.14
2022-11-27T15:31:28.328Z,7.25
2022-11-27T15:36:41.900Z,7.35
2022-11-27T15:41:52.476Z,7.31
2022-11-27T15:46:57.345Z,7.10
2022-11-27T15:52:01.503Z,7.32
2022-11-27T15:57:04.610Z,7.06
2022-11-27T16:02:08.880Z,7.14
2022-11-27T16:07:14.393Z,7.15
2022-11-27T16:12:17.227Z,7.13
2022-11-27T16:17:20.192Z,7.14
2022-11-27T16:22:24.393Z,7.06
2022-11-27T16:27:27.177Z,7.09
2022-11-27T16:32:29.969Z,7.13
2022-11-27T16:37:34.874Z,7.10
2022-11-27T16:42:38.527Z,7.08
2022-11-27T16:47:41.292Z,6.97
2022-11-27T16:52:48.950Z,7.13
2022-11-27T16:57:55.860Z,7.18
2022-11-27T17:02:58.893Z,7.22
2022-11-27T17:08:03.635Z,7.25
2022-11-27T17:13:06.447Z,7.34
2022-11-27T17:18:09.288Z,7.37
2022-11-27T17:23:13.499Z,7.36
2022-11-27T17:28:17.626Z,7.30
2022-11-27T17:33:20.919Z,7.40
2022-11-27T17:38:25.158Z,7.41
2022-11-27T17:43:30.273Z,7.45
2022-11-27T17:48:34.442Z,7.49
2022-11-27T17:53:38.703Z,7.50
2022-11-27T17:58:42.309Z,7.52
2022-11-27T18:03:46.184Z,7.47
2022-11-27T18:08:52.313Z,7.47
2022-11-27T18:13:55.691Z,7.45
2022-11-27T18:19:00.436Z,7.45
2022-11-27T18:29:28.300Z,7.42
2022-11-27T18:34:31.099Z,7.37
2022-11-27T18:39:36.244Z,7.30
2022-11-27T18:44:44.422Z,7.10
2022-11-27T18:49:48.546Z,7.04
2022-11-27T18:54:52.904Z,7.03
2022-11-27T18:59:55.896Z,6.99
2022-11-27T19:04:58.740Z,7.15
2022-11-27T19:10:03.023Z,7.20
2022-11-27T19:15:07.815Z,7.20
2022-11-27T19:20:11.569Z,7.26
2022-11-27T19:25:17.015Z,7.33
2022-11-27T19:30:19.991Z,7.32
2022-11-27T19:35:25.179Z,7.40
2022-11-27T19:40:32.230Z,7.30
2022-11-27T19:45:37.835Z,7.30
2022-11-27T19:50:41.175Z,7.19
2022-11-27T19:55:45.494Z,7.11
2022-11-27T20:00:48.377Z,6.93
2022-11-27T20:05:53.413Z,6.87
2022-11-27T20:11:02.920Z,6.71
2022-11-27T20:16:08.607Z,6.62
2022-11-27T20:21:14.378Z,6.56
2022-11-27T20:26:22.019Z,6.60
2022-11-27T20:31:26.698Z,6.59
2022-11-27T20:36:31.904Z,6.62
2022-11-27T20:41:36.397Z,6.67
2022-11-27T20:46:39.448Z,6.58
2022-11-27T20:51:42.369Z,6.58
2022-11-27T20:56:47.551Z,6.60
2022-11-27T21:01:50.650Z,6.50
2022-11-27T21:06:53.748Z,6.36
2022-11-27T21:11:58.032Z,6.24
2022-11-27T21:17:05.081Z,6.15
2022-11-27T21:22:09.954Z,6.11
2022-11-27T21:27:14.121Z,5.97
2022-11-27T21:32:18.141Z,5.97
2022-11-27T21:37:23.848Z,5.89
2022-11-27T21:42:29.225Z,5.70
2022-11-27T21:47:32.038Z,5.65
2022-11-27T21:52:35.540Z,5.88
2022-11-27T21:57:40.143Z,5.85
2022-11-27T22:02:45.385Z,5.96
2022-11-27T22:07:48.284Z,5.91
2022-11-27T22:12:52.491Z,5.95
2022-11-27T22:17:55.473Z,5.93
2022-11-27T22:22:58.935Z,5.88
2022-11-27T22:28:03.149Z,5.94
2022-11-27T22:33:05.888Z,5.98
2022-11-27T22:38:09.653Z,6.01
2022-11-27T22:43:13.807Z,5.99
2022-11-27T22:48:16.795Z,5.95
2022-11-27T22:53:19.516Z,6.08
2022-11-27T22:58:23.955Z,6.11
2022-11-27T23:03:26.790Z,6.09
2022-11-27T23:08:29.659Z,6.06
2022-11-27T23:13:33.875Z,6.10
2022-11-27T23:18:38.425Z,6.12
2022-11-27T23:23:41.319Z,6.07
2022-11-27T23:28:45.644Z,6.07
2022-11-27T23:33:48.413Z,6.03
2022-11-27T23:38:51.245Z,6.04
2022-11-27T23:43:56.031Z,6.03
2022-11-27T23:49:00.421Z,6.15
2022-11-27T23:54:07.215Z,6.16
2022-11-27T23:59:11.387Z,6.16
